Time;durP1;ratioP1;P1;durP2;ratioP2;P2;SDS_P1;SDS_P2;PMS_P1;PMS_P2;Temp;Humidity;BMP_temperature;BMP_pressure;BME280_temperature;BME280_humidity;BME280_pressure;Samples;Min_cycle;Max_cycle;Signal;HPM_P1;HPM_P2
2021/09/03 00:00:13;;;;;;;5.97;4.00;;;11.10;99.90;;;;;;6273245;28;20230;-77
2021/09/03 00:03:15;;;;;;;5.73;3.27;;;11.20;99.90;;;;;;6255374;28;20192;-77
2021/09/03 00:06:18;;;;;;;6.07;4.00;;;11.10;99.90;;;;;;6272991;28;20373;-76
2021/09/03 00:09:20;;;;;;;4.40;3.30;;;11.00;99.90;;;;;;6273590;28;20198;-77
2021/09/03 00:12:23;;;;;;;7.00;3.63;;;11.00;99.90;;;;;;6274353;28;20213;-77
2021/09/03 00:15:25;;;;;;;6.03;3.57;;;11.00;99.90;;;;;;6274185;28;20192;-77
2021/09/03 00:18:28;;;;;;;4.07;3.47;;;11.00;99.90;;;;;;6272996;28;20685;-77
2021/09/03 00:21:31;;;;;;;4.93;4.00;;;11.00;99.90;;;;;;6272829;28;20231;-77
2021/09/03 00:24:34;;;;;;;5.63;3.70;;;11.00;99.90;;;;;;6261393;28;20206;-77
2021/09/03 00:27:37;;;;;;;4.37;3.67;;;11.00;99.90;;;;;;6250224;28;20216;-77
2021/09/03 00:30:39;;;;;;;4.57;3.50;;;11.00;99.90;;;;;;6267100;28;20690;-77
2021/09/03 00:33:42;;;;;;;4.90;3.33;;;10.90;99.90;;;;;;6263322;28;20358;-77
2021/09/03 00:36:47;;;;;;;5.03;3.63;;;10.90;99.90;;;;;;6288933;28;20210;-77
2021/09/03 00:39:49;;;;;;;4.33;3.90;;;10.90;99.90;;;;;;6272422;28;20202;-77
2021/09/03 00:42:52;;;;;;;7.10;3.27;;;10.80;99.90;;;;;;6272324;28;20513;-77
2021/09/03 00:45:55;;;;;;;5.40;3.77;;;10.80;99.90;;;;;;6272328;28;20219;-76
2021/09/03 00:48:58;;;;;;;5.17;3.87;;;10.70;99.90;;;;;;6272381;28;20195;-77
2021/09/03 00:52:03;;;;;;;4.77;3.30;;;10.70;99.90;;;;;;6272025;28;20196;-77
2021/09/03 00:55:06;;;;;;;4.43;3.60;;;10.70;99.90;;;;;;6273396;28;20192;-77
2021/09/03 00:58:09;;;;;;;4.43;3.60;;;10.70;99.90;;;;;;6271865;28;20692;-77
2021/09/03 01:01:11;;;;;;;4.63;3.50;;;10.70;99.90;;;;;;6271990;28;20680;-77
2021/09/03 01:04:14;;;;;;;4.03;3.63;;;10.70;99.90;;;;;;6258255;28;20199;-77
2021/09/03 01:07:17;;;;;;;4.17;3.47;;;10.70;99.90;;;;;;6251132;28;20209;-76
2021/09/03 01:10:21;;;;;;;4.20;3.33;;;10.70;99.90;;;;;;6271960;28;20188;-76
2021/09/03 01:13:24;;;;;;;5.00;3.80;;;10.80;99.90;;;;;;6271410;28;20227;-77
2021/09/03 01:16:26;;;;;;;4.10;3.37;;;10.80;99.90;;;;;;6243215;28;20223;-77
2021/09/03 01:19:28;;;;;;;5.63;3.70;;;10.70;99.90;;;;;;6272961;28;20197;-77
2021/09/03 01:22:31;;;;;;;5.00;3.23;;;10.60;99.90;;;;;;6268124;28;20704;-77
2021/09/03 01:25:33;;;;;;;4.20;3.77;;;10.60;99.90;;;;;;6264639;28;20421;-77
2021/09/03 01:28:36;;;;;;;5.23;3.80;;;10.50;99.90;;;;;;6271417;28;20187;-76
2021/09/03 01:31:39;;;;;;;3.50;3.10;;;10.50;99.90;;;;;;6254655;28;20223;-77
2021/09/03 01:34:42;;;;;;;4.13;3.23;;;10.50;99.90;;;;;;6255210;28;20192;-77
2021/09/03 01:37:44;;;;;;;4.20;3.53;;;10.50;99.90;;;;;;6279405;28;20195;-76
2021/09/03 01:40:47;;;;;;;4.90;3.40;;;10.50;99.90;;;;;;6272372;28;20200;-77
2021/09/03 01:43:50;;;;;;;4.93;3.83;;;10.50;99.90;;;;;;6254300;28;20207;-77
2021/09/03 01:46:53;;;;;;;5.60;4.17;;;10.50;99.90;;;;;;6270853;28;20249;-77
2021/09/03 01:49:55;;;;;;;5.37;3.33;;;10.40;99.90;;;;;;6254290;28;20198;-77
2021/09/03 01:52:57;;;;;;;5.67;3.97;;;10.50;99.90;;;;;;6271362;28;20263;-77
2021/09/03 01:55:59;;;;;;;6.40;3.50;;;10.50;99.90;;;;;;6270839;28;20653;-77
2021/09/03 01:59:02;;;;;;;5.00;3.60;;;10.50;99.90;;;;;;6270846;28;20233;-77
2021/09/03 02:02:04;;;;;;;5.13;3.70;;;10.40;99.90;;;;;;6254330;28;20204;-77
2021/09/03 02:05:07;;;;;;;3.67;2.97;;;10.50;99.90;;;;;;6265429;28;20195;-77
2021/09/03 02:08:10;;;;;;;4.43;3.60;;;10.40;99.90;;;;;;6270544;28;20218;-77
2021/09/03 02:11:12;;;;;;;3.90;3.10;;;10.40;99.90;;;;;;6270714;28;20187;-77
2021/09/03 02:14:15;;;;;;;4.90;3.63;;;10.40;99.90;;;;;;6269997;28;20191;-77
2021/09/03 02:17:18;;;;;;;5.30;3.70;;;10.40;99.90;;;;;;6271861;28;20292;-77
2021/09/03 02:20:20;;;;;;;4.93;3.40;;;10.40;99.90;;;;;;6270440;28;20189;-77
2021/09/03 02:23:23;;;;;;;4.60;3.40;;;10.40;99.90;;;;;;6243461;28;20722;-76
2021/09/03 02:26:25;;;;;;;4.57;3.50;;;10.40;99.90;;;;;;6266274;28;20204;-77
2021/09/03 02:29:27;;;;;;;4.87;3.57;;;10.30;99.90;;;;;;6256338;28;20444;-77
2021/09/03 02:32:30;;;;;;;3.53;3.23;;;10.30;99.90;;;;;;6255275;28;20291;-76
2021/09/03 02:35:32;;;;;;;4.80;3.37;;;10.30;99.90;;;;;;6275591;28;20185;-76
2021/09/03 02:38:34;;;;;;;4.40;3.37;;;10.20;99.90;;;;;;6270306;28;20357;-76
2021/09/03 02:41:37;;;;;;;4.70;3.70;;;10.20;99.90;;;;;;6269241;28;20227;-76
2021/09/03 02:44:39;;;;;;;4.33;3.30;;;10.20;99.90;;;;;;6275515;28;20278;-77
2021/09/03 02:47:41;;;;;;;4.87;3.70;;;10.20;99.90;;;;;;6275062;28;20219;-77
2021/09/03 02:50:44;;;;;;;4.43;3.33;;;10.10;99.90;;;;;;6274928;28;20344;-77
2021/09/03 02:53:46;;;;;;;7.63;3.60;;;10.10;99.90;;;;;;6275071;28;20321;-76
2021/09/03 02:56:48;;;;;;;5.83;3.87;;;10.10;99.90;;;;;;6258377;28;20208;-77
2021/09/03 02:59:52;;;;;;;4.50;3.83;;;10.20;99.90;;;;;;6276220;28;20191;-77
2021/09/03 03:02:56;;;;;;;6.07;4.00;;;10.10;99.90;;;;;;6270816;28;20196;-77
2021/09/03 03:05:58;;;;;;;5.23;3.57;;;10.10;99.90;;;;;;6265412;28;20261;-76
2021/09/03 03:09:01;;;;;;;4.73;3.37;;;10.10;99.90;;;;;;6273930;28;20260;-78
2021/09/03 03:12:03;;;;;;;4.57;3.63;;;10.10;99.90;;;;;;6266192;28;20679;-76
2021/09/03 03:15:07;;;;;;;4.63;3.40;;;10.00;99.90;;;;;;6277924;28;20244;-77
2021/09/03 03:18:09;;;;;;;4.57;3.57;;;10.00;99.90;;;;;;6286619;28;20199;-77
2021/09/03 03:21:11;;;;;;;3.80;3.37;;;10.00;99.90;;;;;;6257874;28;20199;-77
2021/09/03 03:24:14;;;;;;;3.97;3.47;;;10.10;99.90;;;;;;6274424;28;20554;-77
2021/09/03 03:27:16;;;;;;;5.63;3.30;;;10.10;99.90;;;;;;6274004;28;20215;-77
2021/09/03 03:30:20;;;;;;;4.30;2.87;;;10.10;99.90;;;;;;6274440;28;20214;-77
2021/09/03 03:33:22;;;;;;;4.00;3.43;;;10.00;99.90;;;;;;6253919;28;20196;-77
2021/09/03 03:36:24;;;;;;;5.37;3.20;;;10.10;99.90;;;;;;6274151;28;20325;-77
2021/09/03 03:39:27;;;;;;;4.27;3.17;;;10.00;99.90;;;;;;6224242;28;20266;-77
2021/09/03 03:42:29;;;;;;;5.23;3.30;;;10.00;99.90;;;;;;6283675;28;20202;-77
2021/09/03 03:45:32;;;;;;;3.53;2.67;;;10.00;99.90;;;;;;6257550;28;20535;-77
2021/09/03 03:48:34;;;;;;;3.30;2.97;;;10.00;99.90;;;;;;6273469;28;20252;-77
2021/09/03 03:51:37;;;;;;;4.83;3.20;;;9.90;99.90;;;;;;6257146;28;20249;-77
2021/09/03 03:54:39;;;;;;;3.97;2.90;;;9.90;99.90;;;;;;6273734;28;20183;-77
2021/09/03 03:57:41;;;;;;;3.27;2.40;;;9.90;99.90;;;;;;6272851;28;20226;-77
2021/09/03 04:00:44;;;;;;;3.63;2.83;;;9.80;99.90;;;;;;6266294;28;20203;-76
2021/09/03 04:03:47;;;;;;;3.50;2.83;;;9.80;99.90;;;;;;6264509;28;20681;-77
2021/09/03 04:06:49;;;;;;;7.20;2.90;;;9.80;99.90;;;;;;6288039;28;20245;-77
2021/09/03 04:09:52;;;;;;;5.13;3.20;;;9.80;99.90;;;;;;6246040;28;20200;-77
2021/09/03 04:12:54;;;;;;;3.37;3.00;;;9.80;99.90;;;;;;6255859;28;20205;-77
2021/09/03 04:15:57;;;;;;;3.90;3.00;;;9.80;99.90;;;;;;6268624;28;20271;-77
2021/09/03 04:18:59;;;;;;;3.50;2.87;;;9.70;99.90;;;;;;6256492;28;20201;-77
2021/09/03 04:22:01;;;;;;;5.33;3.10;;;9.80;99.90;;;;;;6256399;28;20227;-77
2021/09/03 04:25:05;;;;;;;2.97;2.43;;;9.70;99.90;;;;;;6272726;28;20204;-77
2021/09/03 04:28:08;;;;;;;2.93;2.50;;;9.70;99.90;;;;;;6272701;28;20581;-77
2021/09/03 04:31:11;;;;;;;4.47;3.07;;;9.70;99.90;;;;;;6272736;28;20215;-77
2021/09/03 04:34:13;;;;;;;3.47;2.43;;;9.70;99.90;;;;;;6257326;28;20215;-77
2021/09/03 04:37:15;;;;;;;4.30;2.53;;;9.70;99.90;;;;;;6266002;28;20210;-77
2021/09/03 04:40:19;;;;;;;5.93;4.73;;;9.70;99.90;;;;;;6272212;28;20187;-77
2021/09/03 04:43:21;;;;;;;3.57;3.10;;;9.70;99.90;;;;;;6271974;28;20191;-77
2021/09/03 04:46:23;;;;;;;4.10;3.40;;;9.70;99.90;;;;;;6271914;28;20248;-77
2021/09/03 04:49:26;;;;;;;4.20;3.00;;;9.70;99.90;;;;;;6271966;28;20561;-77
2021/09/03 04:52:28;;;;;;;6.37;3.17;;;9.70;99.90;;;;;;6272420;28;20251;-77
2021/09/03 04:55:30;;;;;;;4.00;2.80;;;9.80;99.90;;;;;;6271585;28;20191;-77
2021/09/03 04:58:33;;;;;;;3.10;2.57;;;9.70;99.90;;;;;;6271740;28;20660;-77
2021/09/03 05:01:35;;;;;;;3.53;2.80;;;9.80;99.90;;;;;;6252982;28;20672;-78
2021/09/03 05:04:38;;;;;;;3.70;2.90;;;9.80;99.90;;;;;;6263474;28;20204;-77
2021/09/03 05:07:40;;;;;;;3.70;3.00;;;9.80;99.90;;;;;;6259829;28;20222;-77
2021/09/03 05:10:43;;;;;;;3.97;3.30;;;9.80;99.90;;;;;;6253468;28;20196;-77
2021/09/03 05:13:45;;;;;;;3.83;3.03;;;9.90;99.90;;;;;;6235935;28;20197;-77
2021/09/03 05:16:47;;;;;;;3.80;2.50;;;9.90;99.90;;;;;;6266023;28;20669;-77
2021/09/03 05:19:50;;;;;;;4.20;3.27;;;9.90;99.90;;;;;;6271451;28;20206;-77
2021/09/03 05:22:53;;;;;;;3.77;3.07;;;10.00;99.90;;;;;;6221870;28;20239;-77
2021/09/03 05:25:55;;;;;;;7.23;3.27;;;10.00;99.90;;;;;;6281788;28;20218;-77
2021/09/03 05:28:57;;;;;;;6.53;3.40;;;10.00;99.90;;;;;;6272148;28;20578;-77
2021/09/03 05:32:00;;;;;;;4.67;3.00;;;10.10;99.90;;;;;;6247471;28;20225;-77
2021/09/03 05:35:05;;;;;;;7.53;3.27;;;10.10;99.90;;;;;;6244521;28;20198;-77
2021/09/03 05:38:08;;;;;;;3.30;2.67;;;10.10;99.90;;;;;;6270918;28;20199;-77
2021/09/03 05:41:10;;;;;;;6.57;3.30;;;10.10;99.90;;;;;;6271205;28;20757;-77
2021/09/03 05:44:12;;;;;;;3.37;3.00;;;10.20;99.90;;;;;;6267900;28;20210;-77
2021/09/03 05:47:15;;;;;;;4.73;3.07;;;10.20;99.90;;;;;;6246132;28;20226;-77
2021/09/03 05:50:18;;;;;;;6.17;3.30;;;10.20;99.90;;;;;;6223028;28;20190;-77
2021/09/03 05:53:20;;;;;;;6.70;3.40;;;10.20;99.90;;;;;;6279381;28;20202;-77
2021/09/03 05:56:22;;;;;;;3.73;3.13;;;10.30;99.90;;;;;;6270159;28;20193;-77
2021/09/03 05:59:25;;;;;;;5.10;3.20;;;10.30;99.90;;;;;;6270612;28;20199;-77
2021/09/03 06:02:27;;;;;;;3.90;3.27;;;10.30;99.90;;;;;;6269799;28;20289;-77
2021/09/03 06:05:29;;;;;;;3.67;3.13;;;10.40;99.90;;;;;;6253664;28;20179;-77
2021/09/03 06:08:32;;;;;;;4.03;3.20;;;10.50;99.90;;;;;;6270062;28;20281;-78
2021/09/03 06:11:34;;;;;;;4.40;3.30;;;10.50;99.90;;;;;;6269946;28;20187;-77
2021/09/03 06:14:37;;;;;;;6.97;4.17;;;10.60;99.90;;;;;;6262856;28;20193;-77
2021/09/03 06:17:39;;;;;;;6.17;4.33;;;10.60;99.90;;;;;;6268192;28;20253;-77
2021/09/03 06:20:41;;;;;;;3.77;3.30;;;10.70;99.90;;;;;;6270287;28;20191;-77
2021/09/03 06:23:44;;;;;;;4.57;3.17;;;10.80;99.90;;;;;;6255859;28;20223;-77
2021/09/03 06:26:46;;;;;;;5.03;3.13;;;10.80;99.90;;;;;;6258434;28;20328;-77
2021/09/03 06:29:48;;;;;;;6.27;3.50;;;11.00;99.90;;;;;;6269909;28;20199;-77
2021/09/03 06:32:50;;;;;;;3.77;3.33;;;11.00;99.90;;;;;;6267434;28;20696;-77
2021/09/03 06:35:53;;;;;;;4.23;3.50;;;11.10;99.90;;;;;;6246706;28;20192;-78
2021/09/03 06:38:55;;;;;;;4.13;3.40;;;11.20;99.90;;;;;;6271118;28;20219;-77
2021/09/03 06:41:58;;;;;;;4.97;3.47;;;11.20;99.90;;;;;;6239162;28;20617;-77
2021/09/03 06:45:00;;;;;;;3.50;3.20;;;11.30;99.90;;;;;;6259549;28;20203;-77
2021/09/03 06:48:03;;;;;;;3.50;3.20;;;11.40;99.90;;;;;;6253109;28;20211;-77
2021/09/03 06:51:06;;;;;;;4.90;3.47;;;11.50;99.90;;;;;;6256531;28;20198;-77
2021/09/03 06:54:09;;;;;;;5.10;3.80;;;11.60;99.90;;;;;;6271103;28;20206;-77
2021/09/03 06:57:11;;;;;;;4.37;3.93;;;11.70;99.90;;;;;;6269635;28;20198;-77
2021/09/03 07:00:14;;;;;;;3.73;3.17;;;11.80;99.90;;;;;;6269661;28;20194;-77
2021/09/03 07:03:16;;;;;;;5.90;3.40;;;11.90;99.90;;;;;;6247723;28;20299;-77
2021/09/03 07:06:18;;;;;;;5.40;4.13;;;12.00;99.90;;;;;;6253253;28;20203;-78
2021/09/03 07:09:21;;;;;;;5.97;3.50;;;12.10;99.90;;;;;;6279699;28;20458;-77
2021/09/03 07:12:24;;;;;;;4.47;3.70;;;12.20;99.90;;;;;;6269720;28;20203;-77
2021/09/03 07:15:26;;;;;;;4.27;3.43;;;12.40;99.90;;;;;;6257923;28;20331;-77
2021/09/03 07:18:29;;;;;;;4.70;3.70;;;12.60;99.90;;;;;;6262013;28;20596;-77
2021/09/03 07:21:32;;;;;;;5.97;3.40;;;12.80;99.90;;;;;;6257564;28;20230;-78
2021/09/03 07:24:34;;;;;;;4.67;3.70;;;13.00;99.90;;;;;;6275697;28;20648;-77
2021/09/03 07:27:37;;;;;;;3.73;3.33;;;13.30;99.90;;;;;;6275252;28;20214;-78
2021/09/03 07:30:39;;;;;;;3.87;3.10;;;13.70;99.90;;;;;;6274399;28;20787;-78
2021/09/03 07:33:41;;;;;;;4.70;3.27;;;14.10;99.90;;;;;;6265134;28;20201;-78
2021/09/03 07:36:44;;;;;;;4.97;3.77;;;14.40;99.90;;;;;;6286673;28;20271;-78
2021/09/03 07:39:46;;;;;;;4.77;3.87;;;14.70;99.90;;;;;;6258336;28;20324;-78
2021/09/03 07:42:49;;;;;;;5.07;3.87;;;15.10;99.90;;;;;;6236652;28;20228;-78
2021/09/03 07:45:51;;;;;;;5.97;3.67;;;15.50;99.90;;;;;;6245017;28;20312;-78
2021/09/03 07:48:54;;;;;;;5.40;3.47;;;15.80;99.90;;;;;;6274594;28;20576;-78
2021/09/03 07:51:56;;;;;;;3.67;3.13;;;16.20;99.90;;;;;;6274697;28;20328;-78
2021/09/03 07:54:58;;;;;;;4.03;3.63;;;16.60;99.90;;;;;;6274346;28;20187;-78
2021/09/03 07:58:04;;;;;;;5.70;3.40;;;17.00;99.90;;;;;;6276179;28;20196;-78
2021/09/03 08:01:06;;;;;;;6.17;4.20;;;17.40;99.90;;;;;;6229864;28;20204;-78
2021/09/03 08:04:09;;;;;;;4.83;3.73;;;17.70;99.90;;;;;;6267120;28;20200;-78
2021/09/03 08:07:12;;;;;;;3.90;3.13;;;18.10;99.90;;;;;;6264726;28;20218;-78
2021/09/03 08:10:16;;;;;;;4.60;3.60;;;18.50;99.90;;;;;;6275452;28;20199;-78
2021/09/03 08:13:18;;;;;;;3.83;3.30;;;18.90;99.90;;;;;;6273568;28;20293;-78
2021/09/03 08:16:20;;;;;;;4.17;3.50;;;19.30;99.90;;;;;;6258743;28;20194;-78
2021/09/03 08:19:23;;;;;;;4.00;3.37;;;19.60;99.90;;;;;;6272824;28;20199;-79
2021/09/03 08:22:26;;;;;;;3.20;2.90;;;20.00;99.90;;;;;;6275460;28;20323;-78
2021/09/03 08:25:28;;;;;;;5.70;3.67;;;20.40;99.90;;;;;;6278113;28;20526;-78
2021/09/03 08:28:31;;;;;;;7.33;3.80;;;20.50;97.50;;;;;;6257163;28;20677;-78
2021/09/03 08:31:33;;;;;;;5.23;3.60;;;20.50;98.80;;;;;;6273707;28;20211;-79
2021/09/03 08:34:35;;;;;;;4.47;3.47;;;20.80;99.90;;;;;;6270853;28;20202;-78
2021/09/03 08:37:40;;;;;;;4.87;3.40;;;21.10;99.70;;;;;;6272054;28;20317;-78
2021/09/03 08:40:42;;;;;;;4.40;3.70;;;21.40;99.20;;;;;;6257416;28;20291;-78
2021/09/03 08:43:45;;;;;;;4.20;3.80;;;21.50;95.90;;;;;;6249015;28;20583;-78
2021/09/03 08:46:49;;;;;;;4.43;3.50;;;21.60;94.70;;;;;;6256001;28;20203;-78
2021/09/03 08:49:51;;;;;;;4.40;3.43;;;21.60;93.70;;;;;;6273260;28;20218;-78
2021/09/03 08:52:55;;;;;;;5.07;3.27;;;21.70;92.30;;;;;;6272135;28;20655;-78
2021/09/03 08:55:57;;;;;;;4.00;3.53;;;21.90;92.00;;;;;;6276913;28;20191;-77
2021/09/03 08:59:00;;;;;;;3.90;3.33;;;22.10;85.70;;;;;;6273227;28;20199;-79
2021/09/03 09:02:17;;;;;;;5.50;3.27;;;22.00;86.80;;;;;;6259513;28;20602;-78
2021/09/03 09:05:20;;;;;;;3.57;3.20;;;22.40;91.70;;;;;;6253392;28;20188;-78
2021/09/03 09:08:27;;;;;;;4.03;3.50;;;22.40;80.10;;;;;;6275166;28;20281;-78
2021/09/03 09:11:32;;;;;;;4.27;3.23;;;22.40;78.30;;;;;;6257266;28;20199;-78
2021/09/03 09:15:03;;;;;;;5.20;3.20;;;22.40;78.20;;;;;;6266395;28;20195;-78
2021/09/03 09:18:07;;;;;;;4.37;3.63;;;22.70;81.70;;;;;;6272498;28;20202;-77
2021/09/03 09:21:26;;;;;;;5.37;3.30;;;23.00;83.90;;;;;;6276025;28;20250;-78
2021/09/03 09:24:28;;;;;;;5.33;3.60;;;23.20;75.40;;;;;;6208619;28;20197;-77
2021/09/03 09:27:32;;;;;;;3.20;2.90;;;23.20;73.60;;;;;;6286348;28;20226;-78
2021/09/03 09:30:34;;;;;;;2.70;2.50;;;23.30;76.30;;;;;;6273191;28;20207;-78
2021/09/03 09:33:43;;;;;;;3.97;3.10;;;23.70;81.20;;;;;;6262844;28;20204;-78
2021/09/03 09:36:47;;;;;;;3.23;2.93;;;23.80;73.90;;;;;;6261391;28;20620;-79
2021/09/03 09:39:57;;;;;;;4.43;3.03;;;23.80;75.40;;;;;;6272559;28;20560;-78
2021/09/03 09:43:00;;;;;;;3.30;2.90;;;24.20;75.60;;;;;;6271118;28;20199;-78
2021/09/03 09:46:11;;;;;;;3.20;2.90;;;24.20;73.60;;;;;;6264685;28;20329;-78
2021/09/03 09:49:13;;;;;;;4.13;3.10;;;24.40;69.00;;;;;;6228594;28;20215;-78
2021/09/03 09:52:16;;;;;;;5.17;3.17;;;24.60;74.90;;;;;;6272313;28;20179;-78
2021/09/03 09:55:19;;;;;;;3.33;3.03;;;25.00;74.30;;;;;;6205415;28;20572;-78
2021/09/03 09:58:23;;;;;;;4.23;3.17;;;25.30;71.80;;;;;;6280477;28;20203;-78
2021/09/03 10:01:25;;;;;;;4.93;3.70;;;25.50;70.00;;;;;;6271919;28;20218;-78
2021/09/03 10:04:30;;;;;;;3.63;3.22;;;25.60;72.20;;;;;;6269980;28;20202;-79
2021/09/03 10:07:33;;;;;;;3.08;2.75;;;25.90;64.50;;;;;;6260435;28;20585;-78
2021/09/03 10:10:35;;;;;;;3.70;3.08;;;25.90;63.20;;;;;;6256139;28;20208;-78
2021/09/03 10:13:38;;;;;;;4.80;2.92;;;26.00;63.40;;;;;;6254431;28;20301;-78
2021/09/03 10:16:41;;;;;;;3.13;2.70;;;26.10;60.40;;;;;;6248002;28;20199;-78
2021/09/03 10:19:44;;;;;;;4.18;3.20;;;26.30;61.10;;;;;;6271567;28;20199;-78
2021/09/03 10:22:48;;;;;;;3.72;2.97;;;26.30;58.60;;;;;;6269908;28;20279;-78
2021/09/03 10:25:53;;;;;;;3.60;3.00;;;26.30;58.10;;;;;;6271315;28;20202;-78
2021/09/03 10:29:18;;;;;;;3.58;3.28;;;26.50;57.60;;;;;;6271756;28;20204;-79
2021/09/03 10:32:22;;;;;;;3.30;2.92;;;26.60;56.20;;;;;;6269280;28;20219;-78
2021/09/03 10:35:25;;;;;;;3.30;3.00;;;27.00;57.30;;;;;;6275783;28;20222;-78
2021/09/03 10:38:30;;;;;;;3.20;2.88;;;26.90;55.20;;;;;;6271377;28;20283;-78
2021/09/03 10:41:51;;;;;;;4.82;2.75;;;26.80;57.90;;;;;;6271312;28;20194;-78
2021/09/03 10:45:08;;;;;;;2.97;2.67;;;27.40;62.30;;;;;;6263551;28;20208;-78
2021/09/03 10:48:20;;;;;;;3.33;2.90;;;27.60;57.60;;;;;;6247172;28;20196;-79
2021/09/03 10:51:34;;;;;;;3.20;2.90;;;27.60;55.70;;;;;;6270181;28;20283;-79
2021/09/03 10:54:37;;;;;;;3.08;2.78;;;27.60;53.30;;;;;;6275376;28;20194;-79
2021/09/03 10:57:58;;;;;;;2.88;2.67;;;27.60;55.50;;;;;;6275195;28;20199;-78
2021/09/03 11:01:09;;;;;;;4.15;2.95;;;27.80;54.30;;;;;;6274920;28;20196;-78
2021/09/03 11:04:14;;;;;;;3.33;3.00;;;28.10;54.50;;;;;;6261858;28;20216;-77
2021/09/03 11:07:17;;;;;;;4.22;3.55;;;28.40;54.80;;;;;;6272330;28;20302;-79
2021/09/03 11:10:21;;;;;;;3.88;3.40;;;28.00;52.10;;;;;;6258022;28;20685;-78
2021/09/03 11:13:23;;;;;;;3.70;3.28;;;27.80;52.90;;;;;;6274380;28;20188;-78
2021/09/03 11:16:44;;;;;;;3.60;2.83;;;27.80;53.70;;;;;;6263863;28;20270;-78
2021/09/03 11:19:48;;;;;;;3.08;2.70;;;28.10;55.80;;;;;;6246820;28;20203;-78
2021/09/03 11:22:50;;;;;;;3.35;2.90;;;28.30;54.30;;;;;;6240989;28;20593;-78
2021/09/03 11:25:53;;;;;;;2.85;2.30;;;28.40;52.30;;;;;;6269976;28;20207;-77
2021/09/03 11:29:02;;;;;;;3.33;2.80;;;28.60;50.40;;;;;;6267019;28;20212;-78
2021/09/03 11:32:11;;;;;;;3.13;2.80;;;28.60;50.30;;;;;;6274342;28;20722;-78
2021/09/03 11:35:14;;;;;;;3.30;2.55;;;28.90;51.50;;;;;;6252123;28;20334;-78
2021/09/03 11:38:17;;;;;;;4.50;3.25;;;28.90;47.70;;;;;;6270659;28;20207;-78
2021/09/03 11:41:19;;;;;;;3.75;3.08;;;28.70;50.00;;;;;;6275390;28;20218;-79
2021/09/03 11:44:22;;;;;;;4.60;2.83;;;28.70;48.90;;;;;;6260435;28;20327;-78
2021/09/03 11:47:35;;;;;;;3.20;2.90;;;28.30;47.90;;;;;;6265437;28;20214;-77
2021/09/03 11:50:40;;;;;;;3.00;2.75;;;28.10;49.10;;;;;;6250516;28;20191;-78
2021/09/03 11:53:42;;;;;;;3.00;2.70;;;27.30;49.20;;;;;;6272460;28;20184;-79
2021/09/03 11:56:58;;;;;;;4.53;2.92;;;27.30;50.20;;;;;;6273149;28;20206;-78
2021/09/03 12:00:02;;;;;;;3.85;2.72;;;27.40;50.90;;;;;;6254817;28;20241;-78
2021/09/03 12:03:32;;;;;;;2.58;2.38;;;27.60;50.30;;;;;;6264182;28;20204;-78
2021/09/03 12:06:36;;;;;;;2.75;2.50;;;27.90;49.40;;;;;;6223982;28;20565;-77
2021/09/03 12:09:39;;;;;;;5.00;2.45;;;28.10;48.50;;;;;;6289071;28;20223;-78
2021/09/03 12:12:42;;;;;;;4.80;2.40;;;28.30;47.50;;;;;;6273859;28;20647;-78
2021/09/03 12:15:46;;;;;;;3.15;2.72;;;28.70;50.00;;;;;;6234834;28;20204;-78
2021/09/03 12:18:56;;;;;;;3.33;2.60;;;28.90;49.50;;;;;;6243721;28;20294;-78
2021/09/03 12:21:58;;;;;;;3.05;2.75;;;29.00;47.30;;;;;;6264027;28;20235;-79
2021/09/03 12:25:06;;;;;;;4.20;2.65;;;29.00;47.40;;;;;;6273104;28;20205;-79
2021/09/03 12:28:12;;;;;;;3.92;2.88;;;29.10;46.50;;;;;;6273839;28;20562;-79
2021/09/03 12:31:26;;;;;;;5.03;2.70;;;29.20;47.30;;;;;;6267630;28;20699;-79
2021/09/03 12:34:32;;;;;;;2.85;2.63;;;29.00;47.20;;;;;;6257721;28;20204;-79
2021/09/03 12:37:35;;;;;;;3.13;2.72;;;28.90;46.70;;;;;;6272325;28;20206;-79
2021/09/03 12:40:37;;;;;;;3.90;2.78;;;29.00;46.40;;;;;;6272140;28;20199;-79
2021/09/03 12:43:41;;;;;;;4.72;2.92;;;29.30;46.80;;;;;;6241921;28;20204;-79
2021/09/03 12:46:51;;;;;;;3.92;2.97;;;29.70;46.10;;;;;;6240456;28;20200;-78
2021/09/03 12:49:54;;;;;;;3.20;2.90;;;30.00;45.60;;;;;;6270805;28;20245;-79
2021/09/03 12:52:56;;;;;;;3.17;2.88;;;30.30;45.80;;;;;;6254539;28;20187;-79
2021/09/03 12:55:58;;;;;;;2.92;2.53;;;30.30;45.80;;;;;;6271507;28;20230;-79
2021/09/03 12:59:01;;;;;;;5.32;2.95;;;30.50;46.70;;;;;;6265177;28;20192;-79
2021/09/03 13:02:07;;;;;;;4.30;2.97;;;30.70;45.00;;;;;;6266048;28;20314;-79
2021/09/03 13:05:10;;;;;;;3.20;2.90;;;30.80;43.90;;;;;;6250586;28;20196;-79
2021/09/03 13:08:12;;;;;;;2.75;2.55;;;30.40;44.40;;;;;;6238654;28;20208;-79
2021/09/03 13:11:16;;;;;;;4.22;2.97;;;30.30;43.90;;;;;;6281763;28;20655;-78
2021/09/03 13:14:19;;;;;;;2.60;2.40;;;30.60;43.60;;;;;;6252294;28;20195;-79
2021/09/03 13:17:22;;;;;;;3.10;2.80;;;30.40;42.90;;;;;;6262857;28;20194;-80
2021/09/03 13:20:24;;;;;;;3.10;2.47;;;30.70;42.70;;;;;;6270076;28;20566;-79
2021/09/03 13:23:27;;;;;;;3.00;2.67;;;31.30;43.60;;;;;;6251215;28;20235;-79
2021/09/03 13:26:30;;;;;;;3.03;2.45;;;31.60;46.30;;;;;;6271162;28;20647;-79
2021/09/03 13:29:33;;;;;;;2.88;2.65;;;32.20;45.30;;;;;;6271477;28;20219;-79
2021/09/03 13:32:36;;;;;;;3.35;3.05;;;32.60;42.10;;;;;;6251864;28;20215;-79
2021/09/03 13:35:39;;;;;;;4.57;2.88;;;32.70;41.90;;;;;;6285488;28;20196;-79
2021/09/03 13:38:43;;;;;;;3.97;2.63;;;33.10;40.70;;;;;;6271089;28;20214;-79
2021/09/03 13:41:45;;;;;;;3.42;2.60;;;33.50;41.20;;;;;;6254346;28;20207;-79
2021/09/03 13:44:48;;;;;;;3.58;2.67;;;33.80;39.80;;;;;;6271369;28;20207;-79
2021/09/03 13:47:50;;;;;;;4.22;2.80;;;34.30;39.30;;;;;;6270606;28;20202;-79
2021/09/03 13:50:52;;;;;;;3.17;2.88;;;34.70;38.70;;;;;;6271961;28;20198;-79
2021/09/03 13:53:55;;;;;;;2.83;2.55;;;35.10;38.60;;;;;;6270750;28;20282;-79
2021/09/03 13:56:57;;;;;;;2.97;2.67;;;35.40;37.50;;;;;;6270663;28;20187;-79
2021/09/03 14:00:00;;;;;;;3.45;2.80;;;35.40;37.30;;;;;;6270804;28;20360;-79
2021/09/03 14:03:05;;;;;;;3.17;2.88;;;35.40;36.10;;;;;;6267423;28;20204;-79
2021/09/03 14:06:08;;;;;;;2.75;2.50;;;35.40;35.80;;;;;;6265385;28;20199;-79
2021/09/03 14:09:10;;;;;;;3.13;2.83;;;35.40;35.90;;;;;;6271544;28;20572;-79
2021/09/03 14:12:12;;;;;;;3.08;2.78;;;35.50;37.60;;;;;;6258377;28;20278;-79
2021/09/03 14:15:15;;;;;;;3.60;2.60;;;35.20;36.90;;;;;;6266316;28;20583;-79
2021/09/03 14:18:17;;;;;;;2.83;2.63;;;34.10;37.30;;;;;;6270175;28;20285;-78
2021/09/03 14:21:20;;;;;;;3.67;2.85;;;32.80;38.40;;;;;;6271502;28;20198;-78
2021/09/03 14:24:23;;;;;;;3.03;2.72;;;31.50;39.30;;;;;;6256598;28;20197;-78
2021/09/03 14:27:26;;;;;;;3.55;2.70;;;30.30;42.20;;;;;;6278039;28;20191;-78
2021/09/03 14:30:28;;;;;;;2.65;2.42;;;29.60;43.90;;;;;;6278140;28;20235;-78
2021/09/03 14:33:30;;;;;;;3.92;3.17;;;29.40;44.40;;;;;;6261145;28;20246;-78
2021/09/03 14:36:34;;;;;;;3.05;2.72;;;29.10;45.90;;;;;;6267944;28;20187;-78
2021/09/03 14:39:37;;;;;;;3.42;2.65;;;29.20;45.90;;;;;;6277693;28;20481;-78
2021/09/03 14:42:39;;;;;;;2.55;2.35;;;29.90;42.70;;;;;;6278821;28;20198;-78
2021/09/03 14:45:41;;;;;;;3.08;2.78;;;31.10;43.70;;;;;;6278485;28;20668;-77
2021/09/03 14:48:44;;;;;;;2.97;2.67;;;32.10;42.90;;;;;;6278110;28;20215;-78
2021/09/03 14:51:46;;;;;;;2.88;2.58;;;32.90;41.50;;;;;;6278313;28;20187;-78
2021/09/03 14:54:49;;;;;;;3.30;2.40;;;33.70;41.30;;;;;;6280698;28;20203;-78
2021/09/03 14:57:51;;;;;;;6.70;2.83;;;34.30;41.50;;;;;;6277926;28;20257;-79
2021/09/03 15:00:53;;;;;;;3.20;2.90;;;34.70;38.50;;;;;;6261486;28;20206;-78
2021/09/03 15:03:56;;;;;;;4.57;2.70;;;34.80;39.10;;;;;;6250074;28;20199;-78
2021/09/03 15:06:59;;;;;;;2.28;2.08;;;35.10;37.60;;;;;;6261505;28;20190;-79
2021/09/03 15:10:05;;;;;;;3.70;2.78;;;35.10;39.90;;;;;;6277632;28;20233;-79
2021/09/03 15:13:07;;;;;;;3.03;2.72;;;34.70;37.80;;;;;;6276340;28;20179;-78
2021/09/03 15:16:09;;;;;;;2.63;2.42;;;34.60;39.10;;;;;;6249241;28;20196;-78
2021/09/03 15:19:12;;;;;;;3.38;2.53;;;34.40;38.80;;;;;;6275790;28;20266;-78
2021/09/03 15:22:15;;;;;;;46.25;14.35;;;33.00;40.00;;;;;;6277920;28;20280;-78
2021/09/03 15:25:17;;;;;;;16.00;6.60;;;31.20;43.10;;;;;;6253716;28;20879;-78
2021/09/03 15:28:38;;;;;;;4.15;2.85;;;29.70;46.10;;;;;;6259970;28;20707;-78
2021/09/03 15:31:40;;;;;;;4.82;3.30;;;28.40;47.50;;;;;;6260903;28;20292;-78
2021/09/03 15:34:42;;;;;;;7.90;3.55;;;27.30;48.80;;;;;;6249268;28;20210;-78
2021/09/03 15:37:45;;;;;;;9.25;4.07;;;26.50;50.90;;;;;;6267825;28;20218;-78
2021/09/03 15:40:49;;;;;;;5.32;3.33;;;25.80;52.10;;;;;;6265930;28;20740;-77
2021/09/03 15:43:51;;;;;;;6.43;4.30;;;25.30;53.30;;;;;;6273632;28;20195;-78
2021/09/03 15:46:54;;;;;;;4.18;3.40;;;24.70;55.40;;;;;;6274062;28;20265;-78
2021/09/03 15:49:58;;;;;;;4.95;3.47;;;24.30;56.70;;;;;;6274662;28;20214;-77
2021/09/03 15:53:00;;;;;;;4.72;3.38;;;24.00;57.80;;;;;;6248859;28;20193;-77
2021/09/03 15:56:02;;;;;;;6.07;3.30;;;23.70;58.90;;;;;;6250553;28;20313;-78